Time;durP1;ratioP1;P1;durP2;ratioP2;P2;SDS_P1;SDS_P2;PMS_P1;PMS_P2;Temp;Humidity;BMP_temperature;BMP_pressure;BME280_temperature;BME280_humidity;BME280_pressure;Samples;Min_cycle;Max_cycle;Signal;HPM_P1;HPM_P2
2022/07/15 00:00:10;;;;;;;2.97;1.00;;;22.00;51.90;;;;;;2068103;28;20113;-88
2022/07/15 00:01:10;;;;;;;1.08;0.80;;;22.00;51.90;;;;;;2074533;28;20112;-92
2022/07/15 00:02:11;;;;;;;2.00;1.30;;;21.90;51.80;;;;;;2058190;28;20639;-90
2022/07/15 00:03:12;;;;;;;6.23;1.10;;;21.90;51.90;;;;;;2058270;28;20048;-89
2022/07/15 00:04:13;;;;;;;1.90;0.90;;;21.90;51.90;;;;;;2066497;28;20037;-87
2022/07/15 00:05:14;;;;;;;2.77;1.07;;;21.90;52.00;;;;;;2052848;28;20058;-91
2022/07/15 00:06:15;;;;;;;3.58;1.00;;;21.90;52.00;;;;;;2050479;28;20027;-87
2022/07/15 00:07:16;;;;;;;7.47;1.20;;;21.90;52.00;;;;;;2065799;28;20026;-90
2022/07/15 00:08:17;;;;;;;2.25;0.93;;;21.90;52.10;;;;;;2060297;28;20038;-90
2022/07/15 00:09:17;;;;;;;2.23;1.10;;;21.90;52.10;;;;;;2058327;28;20110;-89
2022/07/15 00:10:20;;;;;;;1.63;0.90;;;21.90;52.10;;;;;;2067695;28;20028;-91
2022/07/15 00:11:21;;;;;;;8.02;1.52;;;21.90;52.20;;;;;;2057512;28;20031;-90
2022/07/15 00:12:22;;;;;;;1.87;1.10;;;21.90;52.10;;;;;;2058704;28;20818;-88
2022/07/15 00:13:24;;;;;;;2.67;1.10;;;21.90;52.10;;;;;;2060179;28;20023;-89
2022/07/15 00:14:25;;;;;;;2.17;0.85;;;21.90;52.10;;;;;;2050469;28;20073;-87
2022/07/15 00:15:29;;;;;;;4.47;1.00;;;21.90;52.20;;;;;;2058158;28;20264;-89
2022/07/15 00:16:30;;;;;;;5.05;1.00;;;21.90;52.20;;;;;;2066221;28;20070;-90
2022/07/15 00:17:31;;;;;;;2.47;1.07;;;21.90;52.20;;;;;;2058177;28;20272;-88
2022/07/15 00:18:31;;;;;;;3.27;0.87;;;21.90;52.20;;;;;;2052014;28;20051;-90
2022/07/15 00:19:34;;;;;;;3.63;0.90;;;21.80;52.20;;;;;;2050239;28;20032;-89
2022/07/15 00:20:35;;;;;;;2.92;1.15;;;21.80;52.20;;;;;;2063752;28;20030;-91
2022/07/15 00:21:36;;;;;;;1.93;0.93;;;21.80;52.10;;;;;;2066279;28;20268;-91
2022/07/15 00:22:38;;;;;;;2.77;1.20;;;21.80;52.10;;;;;;2066547;28;20033;-88
2022/07/15 00:23:38;;;;;;;3.72;1.30;;;21.80;52.30;;;;;;2053069;28;20035;-91
2022/07/15 00:24:39;;;;;;;2.77;1.10;;;21.80;52.30;;;;;;2065538;28;20034;-88
2022/07/15 00:25:40;;;;;;;4.30;1.20;;;21.80;52.30;;;;;;2055417;28;20113;-91
2022/07/15 00:26:41;;;;;;;4.70;0.93;;;21.80;52.30;;;;;;2050153;29;20050;-90
2022/07/15 00:28:03;;;;;;;1.13;0.73;;;21.80;52.30;;;;;;2065659;28;20027;-90
2022/07/15 00:29:03;;;;;;;1.45;0.88;;;21.80;52.30;;;;;;2060672;28;20017;-87
2022/07/15 00:30:05;;;;;;;3.40;1.00;;;21.80;52.40;;;;;;2066432;28;20295;-90
2022/07/15 00:31:06;;;;;;;2.00;1.10;;;21.80;52.40;;;;;;2057912;28;20038;-87
2022/07/15 00:32:07;;;;;;;2.42;0.88;;;21.80;52.40;;;;;;2050536;28;20090;-88
2022/07/15 00:33:10;;;;;;;2.83;1.07;;;21.70;52.30;;;;;;2050349;28;20442;-88
2022/07/15 00:34:10;;;;;;;3.90;0.98;;;21.80;52.50;;;;;;2063499;28;20026;-88
2022/07/15 00:35:11;;;;;;;2.17;0.97;;;21.70;52.40;;;;;;2058181;28;20679;-90
2022/07/15 00:36:12;;;;;;;1.33;0.90;;;21.70;52.50;;;;;;2066251;28;20038;-93
2022/07/15 00:37:13;;;;;;;3.67;1.40;;;21.80;52.50;;;;;;2069731;28;20045;-88
2022/07/15 00:38:14;;;;;;;6.40;1.20;;;21.80;52.50;;;;;;2057579;28;20034;-93
2022/07/15 00:39:16;;;;;;;3.50;1.30;;;21.70;52.50;;;;;;2060148;28;20556;-91
2022/07/15 00:40:17;;;;;;;3.03;0.95;;;21.70;52.50;;;;;;2066469;28;20101;-91
2022/07/15 00:41:17;;;;;;;5.22;1.15;;;21.70;52.50;;;;;;2066546;28;20039;-91
2022/07/15 00:43:40;;;;;;;4.85;0.90;;;21.70;52.50;;;;;;2060540;28;20035;-89
2022/07/15 00:44:41;;;;;;;4.72;1.00;;;21.70;52.50;;;;;;2060866;28;20359;-88
2022/07/15 00:45:43;;;;;;;2.20;0.88;;;21.70;52.50;;;;;;2050552;28;20261;-88
2022/07/15 00:46:44;;;;;;;3.63;0.90;;;21.60;52.50;;;;;;2064914;28;20037;-89
2022/07/15 00:47:49;;;;;;;4.70;1.13;;;21.70;52.70;;;;;;2058227;28;20381;-88
2022/07/15 00:48:50;;;;;;;4.97;1.00;;;21.60;52.60;;;;;;2059662;28;20042;-88
2022/07/15 00:49:51;;;;;;;1.63;0.93;;;21.60;52.60;;;;;;2054033;28;20272;-89
2022/07/15 00:50:53;;;;;;;3.40;0.80;;;21.60;52.60;;;;;;2042257;28;20114;-89
2022/07/15 00:51:55;;;;;;;2.05;1.10;;;21.60;53.20;;;;;;2056692;28;20034;-89
2022/07/15 00:53:00;;;;;;;2.03;0.82;;;21.60;52.60;;;;;;2056605;28;20019;-92
2022/07/15 00:54:03;;;;;;;2.55;1.20;;;21.50;52.70;;;;;;2050596;28;20297;-89
2022/07/15 00:55:06;;;;;;;3.60;0.90;;;21.50;52.70;;;;;;2061415;28;20267;-91
2022/07/15 00:56:09;;;;;;;2.70;1.17;;;21.50;52.70;;;;;;2074525;28;20347;-89
2022/07/15 00:57:10;;;;;;;2.67;1.02;;;21.50;52.80;;;;;;2058301;28;20261;-89
2022/07/15 00:58:18;;;;;;;1.92;0.85;;;21.50;52.90;;;;;;2060587;28;20331;-89
2022/07/15 00:59:22;;;;;;;5.10;0.95;;;21.50;52.80;;;;;;2075225;28;20424;-91
2022/07/15 01:00:23;;;;;;;3.17;1.25;;;21.50;52.80;;;;;;2074117;28;20263;-90
2022/07/15 01:01:24;;;;;;;2.30;0.90;;;21.50;52.80;;;;;;2064761;28;20335;-87
2022/07/15 01:02:25;;;;;;;2.20;0.97;;;21.50;52.80;;;;;;2058249;28;20363;-88
2022/07/15 01:03:27;;;;;;;2.90;1.00;;;21.60;52.90;;;;;;2062112;28;20026;-90
2022/07/15 01:04:32;;;;;;;1.65;0.60;;;21.50;52.80;;;;;;2065908;28;20030;-90
2022/07/15 01:05:33;;;;;;;2.60;1.08;;;21.50;52.80;;;;;;2059040;28;20276;-89
2022/07/15 01:06:34;;;;;;;4.90;1.00;;;21.50;52.80;;;;;;2050304;28;20679;-89
2022/07/15 01:07:36;;;;;;;1.73;0.85;;;21.50;52.80;;;;;;2050617;28;20066;-89
2022/07/15 01:08:36;;;;;;;2.40;1.00;;;21.50;52.90;;;;;;2056258;28;20046;-87
2022/07/15 01:09:37;;;;;;;1.43;0.70;;;21.50;52.90;;;;;;2059707;28;20034;-87
2022/07/15 01:10:39;;;;;;;4.33;1.00;;;21.50;52.80;;;;;;2066352;28;20158;-91
2022/07/15 01:11:40;;;;;;;4.72;1.00;;;21.50;52.90;;;;;;2059298;28;20031;-91
2022/07/15 01:12:46;;;;;;;1.73;0.93;;;21.50;52.90;;;;;;2067861;28;20343;-92
2022/07/15 01:13:48;;;;;;;5.32;1.20;;;21.40;52.80;;;;;;2063622;28;20031;-93
2022/07/15 01:14:49;;;;;;;2.28;0.77;;;21.40;52.80;;;;;;2067635;28;20606;-87
2022/07/15 01:15:51;;;;;;;1.17;0.80;;;21.40;52.80;;;;;;2051946;28;20038;-89
2022/07/15 01:16:53;;;;;;;3.35;1.20;;;21.40;52.90;;;;;;2057220;28;20299;-89
2022/07/15 01:17:53;;;;;;;2.63;1.08;;;21.40;52.90;;;;;;2067212;28;20071;-91
2022/07/15 01:18:55;;;;;;;3.55;0.73;;;21.40;52.90;;;;;;2067515;28;20153;-91
2022/07/15 01:20:02;;;;;;;2.97;0.70;;;21.40;53.00;;;;;;2060436;28;20374;-89
2022/07/15 01:21:09;;;;;;;1.50;0.82;;;21.40;52.90;;;;;;2062208;28;20299;-90
2022/07/15 01:22:11;;;;;;;;;;;21.40;53.00;;;;;;2064379;28;20342;-89
2022/07/15 01:23:12;;;;;;;3.15;0.90;;;21.40;53.00;;;;;;2059710;28;20094;-91
2022/07/15 01:24:25;;;;;;;4.28;0.95;;;21.40;53.00;;;;;;2068566;28;20257;-91
2022/07/15 01:25:44;;;;;;;2.15;0.98;;;21.40;53.00;;;;;;2074262;28;20295;-87
2022/07/15 01:26:47;;;;;;;2.05;1.00;;;21.40;53.10;;;;;;2069267;28;20272;-90
2022/07/15 01:27:51;;;;;;;2.13;0.73;;;21.40;53.10;;;;;;2052583;28;20754;-89
2022/07/15 01:28:56;;;;;;;4.57;1.05;;;21.40;53.20;;;;;;2052522;28;20274;-90
2022/07/15 01:29:59;;;;;;;2.15;1.10;;;21.40;53.20;;;;;;2060164;28;20288;-87
2022/07/15 01:31:00;;;;;;;3.67;1.00;;;21.40;53.30;;;;;;2058280;28;20362;-89
2022/07/15 01:32:04;;;;;;;4.63;1.15;;;21.40;53.30;;;;;;2058334;28;20253;-90
2022/07/15 01:33:06;;;;;;;3.70;1.05;;;21.40;53.30;;;;;;2051901;28;20280;-87
2022/07/15 01:34:07;;;;;;;1.80;0.75;;;21.40;53.30;;;;;;2051544;28;20045;-91
2022/07/15 01:35:09;;;;;;;2.35;1.00;;;21.40;53.30;;;;;;2051621;28;20126;-92
2022/07/15 01:36:13;;;;;;;6.43;1.15;;;21.40;53.40;;;;;;2060358;28;20311;-91
2022/07/15 01:37:18;;;;;;;3.60;0.82;;;21.30;53.40;;;;;;2067429;28;20267;-90
2022/07/15 01:38:24;;;;;;;2.15;1.05;;;21.40;53.50;;;;;;2059552;28;20742;-88
2022/07/15 01:39:31;;;;;;;2.08;0.82;;;21.40;53.50;;;;;;2061829;28;20300;-91
2022/07/15 01:40:33;;;;;;;1.98;0.82;;;21.30;53.50;;;;;;2058651;28;20296;-87
2022/07/15 01:41:35;;;;;;;2.80;1.00;;;21.30;53.50;;;;;;2051699;28;20746;-88
2022/07/15 01:42:36;;;;;;;2.00;1.03;;;21.30;53.50;;;;;;2063818;28;20054;-91
2022/07/15 01:43:37;;;;;;;2.67;1.00;;;21.40;53.60;;;;;;2083796;28;20502;-90
2022/07/15 01:44:38;;;;;;;3.60;0.90;;;21.40;53.50;;;;;;2073878;28;20027;-89
2022/07/15 01:45:43;;;;;;;3.60;0.80;;;21.30;53.50;;;;;;2067450;28;20267;-89
2022/07/15 01:46:45;;;;;;;3.10;0.93;;;21.30;53.60;;;;;;2060380;28;20121;-89
2022/07/15 01:47:48;;;;;;;2.08;1.00;;;21.30;53.60;;;;;;2062046;28;20264;-90
2022/07/15 01:50:25;;;;;;;2.35;0.80;;;21.30;53.70;;;;;;2083833;28;20435;-88
2022/07/15 01:51:31;;;;;;;4.63;1.10;;;21.30;53.80;;;;;;2074748;28;20579;-88
2022/07/15 01:52:32;;;;;;;1.80;0.80;;;21.30;53.80;;;;;;2076170;28;20290;-89
2022/07/15 01:53:34;;;;;;;1.10;0.80;;;21.20;53.80;;;;;;2053743;28;20114;-88
2022/07/15 01:54:35;;;;;;;2.63;0.80;;;21.20;53.80;;;;;;2052603;28;20035;-90
2022/07/15 01:55:38;;;;;;;2.05;0.80;;;21.20;53.80;;;;;;2059392;28;20373;-89
2022/07/15 01:56:38;;;;;;;5.97;1.40;;;21.20;53.80;;;;;;2063409;28;20296;-89
2022/07/15 01:57:40;;;;;;;4.85;1.20;;;21.20;53.80;;;;;;2050724;28;20031;-87
2022/07/15 01:58:43;;;;;;;1.73;0.90;;;21.20;53.90;;;;;;2066587;28;20411;-88
2022/07/15 01:59:46;;;;;;;2.83;1.00;;;21.20;53.90;;;;;;2063515;28;20381;-89
2022/07/15 02:00:50;;;;;;;2.53;0.93;;;21.20;54.00;;;;;;2052254;28;20292;-88
2022/07/15 02:01:53;;;;;;;4.50;1.00;;;21.20;54.00;;;;;;2059111;28;20263;-90
2022/07/15 02:02:55;;;;;;;2.50;0.82;;;21.20;54.00;;;;;;2067153;28;20110;-91
2022/07/15 02:03:56;;;;;;;4.40;1.13;;;21.20;53.90;;;;;;2051333;28;20257;-92
2022/07/15 02:04:57;;;;;;;3.07;1.20;;;21.20;54.00;;;;;;2055720;28;20328;-90
2022/07/15 02:05:58;;;;;;;2.03;1.02;;;21.20;54.00;;;;;;2067267;28;20022;-90
2022/07/15 02:07:02;;;;;;;2.95;1.17;;;21.10;54.00;;;;;;2067546;28;20507;-90
2022/07/15 02:08:09;;;;;;;2.95;1.00;;;21.10;54.00;;;;;;2060737;28;20257;-91
2022/07/15 02:09:10;;;;;;;3.83;1.13;;;21.10;54.00;;;;;;2068011;28;20253;-89
2022/07/15 02:10:15;;;;;;;4.38;1.15;;;21.20;54.10;;;;;;2067599;28;20268;-88
2022/07/15 02:11:21;;;;;;;1.83;1.10;;;21.10;54.00;;;;;;2060423;28;20300;-90
2022/07/15 02:12:25;;;;;;;3.70;1.27;;;21.10;54.00;;;;;;2060036;28;20260;-89
2022/07/15 02:13:28;;;;;;;1.70;0.85;;;21.10;54.10;;;;;;2070493;28;20362;-87
2022/07/15 02:14:33;;;;;;;4.60;1.10;;;21.10;54.00;;;;;;2075222;28;20279;-87
2022/07/15 02:15:39;;;;;;;2.55;1.00;;;21.10;54.00;;;;;;2061800;28;20273;-89
2022/07/15 02:16:41;;;;;;;2.58;1.10;;;21.10;54.10;;;;;;2051790;28;20265;-90
2022/07/15 02:17:46;;;;;;;3.45;1.20;;;21.10;54.10;;;;;;2051892;28;20351;-89
2022/07/15 02:18:47;;;;;;;3.77;1.07;;;21.10;54.10;;;;;;2059591;28;20749;-90
2022/07/15 02:19:48;;;;;;;2.03;0.97;;;21.10;54.20;;;;;;2067225;28;20119;-89
2022/07/15 02:20:49;;;;;;;3.63;1.48;;;21.10;54.10;;;;;;2060048;28;20354;-89
2022/07/15 02:21:50;;;;;;;3.23;1.27;;;21.00;54.10;;;;;;2051027;28;20464;-89
2022/07/15 02:22:50;;;;;;;2.10;1.10;;;21.00;54.10;;;;;;2043082;28;20055;-89
2022/07/15 02:23:52;;;;;;;2.63;0.93;;;21.00;54.10;;;;;;2051022;28;20027;-90
2022/07/15 02:24:53;;;;;;;;;;;21.00;54.20;;;;;;2050998;28;20027;-89
2022/07/15 02:25:55;;;;;;;3.90;1.23;;;21.00;54.40;;;;;;2051078;28;19906;-88
2022/07/15 02:26:59;;;;;;;2.25;1.02;;;21.00;54.20;;;;;;2051624;28;20269;-93
2022/07/15 02:28:03;;;;;;;;;;;21.00;54.30;;;;;;2052223;28;20296;-90
2022/07/15 02:29:04;;;;;;;1.80;1.02;;;21.00;54.30;;;;;;2059988;28;19906;-87
2022/07/15 02:30:05;;;;;;;2.88;1.10;;;21.00;54.30;;;;;;2070161;28;20031;-85
2022/07/15 02:31:11;;;;;;;1.65;0.98;;;21.00;54.30;;;;;;2060361;28;20015;-87
2022/07/15 02:32:12;;;;;;;4.82;0.90;;;21.00;54.30;;;;;;2059596;28;20249;-88
2022/07/15 02:33:16;;;;;;;2.05;1.00;;;21.00;54.50;;;;;;2051303;28;20262;-89
2022/07/15 02:34:17;;;;;;;3.58;1.50;;;20.90;54.40;;;;;;2059460;28;20835;-90
2022/07/15 02:35:18;;;;;;;2.20;1.30;;;20.90;54.40;;;;;;2051469;28;20039;-90
2022/07/15 02:36:19;;;;;;;2.28;1.20;;;21.00;54.50;;;;;;2067068;28;20030;-88
2022/07/15 02:37:21;;;;;;;2.13;1.15;;;20.90;54.40;;;;;;2059056;28;20034;-87
2022/07/15 02:38:24;;;;;;;4.70;1.63;;;20.90;54.50;;;;;;2050682;28;20043;-89
2022/07/15 02:39:27;;;;;;;3.42;1.30;;;20.90;54.50;;;;;;2056686;28;20742;-88
2022/07/15 02:40:31;;;;;;;3.50;1.30;;;20.90;55.10;;;;;;2058401;28;20279;-91
2022/07/15 02:41:32;;;;;;;3.87;1.30;;;20.90;54.50;;;;;;2067309;28;20287;-91
2022/07/15 02:42:36;;;;;;;2.95;1.30;;;20.90;54.50;;;;;;2066825;28;20030;-89
2022/07/15 02:43:41;;;;;;;1.63;1.02;;;20.90;54.50;;;;;;2059726;28;20751;-89
2022/07/15 02:44:42;;;;;;;2.47;1.00;;;20.90;54.60;;;;;;2061731;28;20299;-89
2022/07/15 02:45:45;;;;;;;6.13;1.42;;;20.90;54.50;;;;;;2067204;28;20271;-90
2022/07/15 02:46:50;;;;;;;4.15;1.23;;;20.90;54.60;;;;;;2056359;28;20368;-89
2022/07/15 02:47:56;;;;;;;3.50;1.15;;;20.90;54.70;;;;;;2053053;28;20344;-90
2022/07/15 02:51:24;;;;;;;8.35;1.33;;;20.90;54.80;;;;;;2066722;28;20216;-88
2022/07/15 02:52:26;;;;;;;2.80;1.30;;;20.90;54.90;;;;;;2062488;28;20280;-90
2022/07/15 02:53:28;;;;;;;7.93;1.25;;;20.90;54.90;;;;;;2051146;28;20042;-89
2022/07/15 02:54:33;;;;;;;3.13;1.33;;;20.80;54.90;;;;;;2066231;28;20117;-89
2022/07/15 02:55:34;;;;;;;2.70;1.20;;;20.90;55.00;;;;;;2051251;28;20685;-91
2022/07/15 02:56:34;;;;;;;2.75;1.20;;;20.80;54.90;;;;;;2048177;28;20036;-91
2022/07/15 02:57:36;;;;;;;7.93;1.73;;;20.80;55.00;;;;;;2042712;29;20359;-91
2022/07/15 02:58:38;;;;;;;4.53;1.60;;;20.80;55.10;;;;;;2053829;28;20031;-90
2022/07/15 02:59:39;;;;;;;3.25;1.30;;;20.80;55.00;;;;;;2058584;28;20034;-92
2022/07/15 03:00:40;;;;;;;2.20;1.23;;;20.80;55.10;;;;;;2042825;29;20025;-89
2022/07/15 03:01:41;;;;;;;3.10;1.55;;;20.80;55.10;;;;;;2035094;29;20036;-90
2022/07/15 03:02:42;;;;;;;3.50;1.40;;;20.80;55.10;;;;;;2042770;28;20027;-90
2022/07/15 03:03:44;;;;;;;2.67;1.30;;;20.80;55.30;;;;;;2056400;28;20054;-91
2022/07/15 03:04:52;;;;;;;2.60;1.40;;;20.80;55.30;;;;;;2066145;28;20256;-91
2022/07/15 03:05:54;;;;;;;2.43;1.33;;;20.70;55.20;;;;;;2050595;29;20353;-91
2022/07/15 03:06:55;;;;;;;;;;;20.70;55.30;;;;;;2047607;28;20067;-88
2022/07/15 03:07:55;;;;;;;4.10;1.20;;;20.70;55.30;;;;;;2035069;29;20281;-90
2022/07/15 03:08:58;;;;;;;3.58;1.27;;;20.70;55.40;;;;;;2063662;28;20061;-91
2022/07/15 03:09:59;;;;;;;3.05;1.30;;;20.70;55.30;;;;;;2065587;28;20342;-88
2022/07/15 03:11:00;;;;;;;5.72;1.20;;;20.70;55.40;;;;;;2050171;28;20028;-88
2022/07/15 03:12:01;;;;;;;1.60;1.23;;;20.70;55.30;;;;;;2050708;28;20062;-90
2022/07/15 03:13:02;;;;;;;1.43;1.00;;;20.70;55.40;;;;;;2058651;28;20030;-89
2022/07/15 03:14:03;;;;;;;1.60;1.05;;;20.70;55.40;;;;;;2048873;28;20035;-92
2022/07/15 03:15:06;;;;;;;3.83;1.60;;;20.70;55.40;;;;;;2058708;28;20034;-92
2022/07/15 03:16:09;;;;;;;3.75;1.20;;;20.70;55.40;;;;;;2051548;28;20659;-90
2022/07/15 03:17:11;;;;;;;4.90;1.65;;;20.70;55.40;;;;;;2059168;28;20347;-90
2022/07/15 03:18:12;;;;;;;2.30;1.23;;;20.70;55.40;;;;;;2057959;28;20276;-91
2022/07/15 03:19:13;;;;;;;2.83;1.30;;;20.60;55.40;;;;;;2052997;28;20031;-92
2022/07/15 03:20:15;;;;;;;3.53;1.40;;;20.60;55.40;;;;;;2053610;28;20043;-89
2022/07/15 03:21:22;;;;;;;5.05;1.50;;;20.60;55.50;;;;;;2051653;28;20344;-90
2022/07/15 03:22:25;;;;;;;3.60;1.23;;;20.60;55.50;;;;;;2051515;28;20261;-89
2022/07/15 03:23:26;;;;;;;;;;;20.60;55.50;;;;;;2050941;28;20122;-88
2022/07/15 03:24:28;;;;;;;2.13;1.30;;;20.60;55.50;;;;;;2056939;28;19906;-91
2022/07/15 03:25:32;;;;;;;4.80;1.30;;;20.60;55.60;;;;;;2058965;28;20034;-87
2022/07/15 03:26:39;;;;;;;2.70;1.50;;;20.60;55.60;;;;;;2052570;28;20279;-89
2022/07/15 03:27:39;;;;;;;3.13;1.37;;;20.60;55.60;;;;;;2067140;28;20808;-87
2022/07/15 03:28:44;;;;;;;3.45;1.40;;;20.60;55.60;;;;;;2072914;28;20519;-91
2022/07/15 03:29:44;;;;;;;;;;;20.60;55.70;;;;;;2043334;28;20357;-88
2022/07/15 03:30:46;;;;;;;3.70;1.83;;;20.60;55.70;;;;;;2050337;28;19910;-90
2022/07/15 03:31:49;;;;;;;4.07;1.40;;;20.60;55.70;;;;;;2049941;28;20356;-87
2022/07/15 03:32:56;;;;;;;3.08;1.30;;;20.60;55.70;;;;;;2036636;29;20267;-88
2022/07/15 03:33:57;;;;;;;2.87;1.33;;;20.60;55.70;;;;;;2046755;28;20605;-91
2022/07/15 03:35:01;;;;;;;2.63;1.30;;;20.50;55.70;;;;;;2050917;28;20103;-91
2022/07/15 03:36:05;;;;;;;1.83;1.05;;;20.50;55.70;;;;;;2050974;28;20261;-88
2022/07/15 03:37:07;;;;;;;3.88;1.25;;;20.50;55.80;;;;;;2042617;29;20273;-88
2022/07/15 03:38:08;;;;;;;2.63;1.43;;;20.50;55.80;;;;;;2041834;28;20043;-88
2022/07/15 03:39:09;;;;;;;3.25;1.55;;;20.50;55.80;;;;;;2045004;28;20101;-92
2022/07/15 03:40:10;;;;;;;4.38;1.27;;;20.50;55.80;;;;;;2050680;28;20046;-90
2022/07/15 03:41:12;;;;;;;;;;;20.50;55.90;;;;;;2058850;28;20047;-90
2022/07/15 03:42:13;;;;;;;3.75;1.23;;;20.50;55.90;;;;;;2058402;28;19906;-88
2022/07/15 03:43:15;;;;;;;2.22;1.10;;;20.50;56.00;;;;;;2058563;28;20053;-90
2022/07/15 03:44:17;;;;;;;6.90;1.45;;;20.40;56.00;;;;;;2057691;28;20268;-87
2022/07/15 03:45:21;;;;;;;3.20;1.13;;;20.40;56.00;;;;;;2058787;28;20261;-87
2022/07/15 03:46:25;;;;;;;2.55;1.27;;;20.40;56.00;;;;;;2052912;28;20778;-88
2022/07/15 03:47:30;;;;;;;3.00;1.30;;;20.50;56.00;;;;;;2052609;28;20603;-90
2022/07/15 03:48:31;;;;;;;4.67;1.50;;;20.40;56.00;;;;;;2058840;28;20360;-87
2022/07/15 03:49:31;;;;;;;3.90;1.40;;;20.40;56.00;;;;;;2058290;28;20037;-90
2022/07/15 03:50:33;;;;;;;5.03;1.40;;;20.40;56.00;;;;;;2058568;28;20472;-90
2022/07/15 03:51:35;;;;;;;2.25;1.30;;;20.40;56.10;;;;;;2050137;28;20065;-89
2022/07/15 03:52:36;;;;;;;6.37;1.40;;;20.40;56.10;;;;;;2050440;28;20319;-91
2022/07/15 03:53:38;;;;;;;5.65;1.30;;;20.40;56.20;;;;;;2050732;28;20469;-86
2022/07/15 03:54:39;;;;;;;3.83;1.43;;;20.40;56.30;;;;;;2063144;28;20269;-89
2022/07/15 03:55:40;;;;;;;2.47;1.48;;;20.40;56.30;;;;;;2062987;28;20046;-87
2022/07/15 03:56:41;;;;;;;2.60;1.17;;;20.40;56.30;;;;;;2058343;28;20045;-89
2022/07/15 03:57:42;;;;;;;2.30;1.10;;;20.30;56.30;;;;;;2049948;28;20031;-89
2022/07/15 03:58:44;;;;;;;3.20;1.33;;;20.40;56.30;;;;;;2058681;28;20444;-88
2022/07/15 03:59:46;;;;;;;4.13;1.45;;;20.40;56.30;;;;;;2066628;28;20326;-89
2022/07/15 04:00:46;;;;;;;2.73;1.33;;;20.30;56.20;;;;;;2058506;28;20488;-90
2022/07/15 04:01:52;;;;;;;4.93;1.47;;;20.40;56.30;;;;;;2060631;28;20248;-90
2022/07/15 04:02:53;;;;;;;2.60;1.55;;;20.40;56.20;;;;;;2051620;28;20041;-90
2022/07/15 04:03:54;;;;;;;6.60;1.27;;;20.30;56.20;;;;;;2058314;28;20287;-91
2022/07/15 04:04:54;;;;;;;4.57;1.40;;;20.30;56.30;;;;;;2053078;28;20472;-89
2022/07/15 04:05:55;;;;;;;4.10;1.33;;;20.30;56.20;;;;;;2050507;29;20118;-88
2022/07/15 04:06:56;;;;;;;13.48;1.60;;;20.30;56.30;;;;;;2070735;28;20029;-90
2022/07/15 04:07:58;;;;;;;3.40;1.35;;;20.30;56.30;;;;;;2057566;28;20031;-89
2022/07/15 04:09:01;;;;;;;2.75;1.15;;;20.30;56.30;;;;;;2050469;28;20458;-87
2022/07/15 04:10:03;;;;;;;2.00;1.30;;;20.20;56.30;;;;;;2058389;28;20252;-90
2022/07/15 04:11:05;;;;;;;2.65;1.20;;;20.20;56.40;;;;;;2073828;28;20310;-89
2022/07/15 04:12:07;;;;;;;7.18;1.60;;;20.20;56.40;;;;;;2060630;28;20260;-88
2022/07/15 04:13:13;;;;;;;2.95;1.30;;;20.30;56.50;;;;;;2053517;28;20031;-89
2022/07/15 04:14:14;;;;;;;2.43;1.37;;;20.20;56.30;;;;;;2058447;28;20307;-90
2022/07/15 04:15:15;;;;;;;2.08;1.33;;;20.20;56.30;;;;;;2067805;28;20036;-87
2022/07/15 04:16:19;;;;;;;2.60;1.27;;;20.20;56.40;;;;;;2066555;28;20077;-89
2022/07/15 04:17:21;;;;;;;1.92;1.08;;;20.20;56.40;;;;;;2051627;28;20274;-89
2022/07/15 04:18:23;;;;;;;3.35;1.42;;;20.20;56.40;;;;;;2057644;28;20288;-87
2022/07/15 04:19:25;;;;;;;4.90;1.52;;;20.20;56.40;;;;;;2058588;28;20492;-88
2022/07/15 04:20:30;;;;;;;2.58;1.35;;;20.20;56.40;;;;;;2059392;28;20268;-91
2022/07/15 04:21:33;;;;;;;2.60;1.40;;;20.20;56.40;;;;;;2059316;28;20268;-87
2022/07/15 04:22:40;;;;;;;7.00;1.50;;;20.20;56.40;;;;;;2058936;28;20257;-90
2022/07/15 04:23:41;;;;;;;4.43;1.60;;;20.20;56.40;;;;;;2063457;28;20269;-91
2022/07/15 04:24:44;;;;;;;3.53;1.67;;;20.10;56.40;;;;;;2057079;28;20746;-87
2022/07/15 04:25:51;;;;;;;5.35;2.03;;;20.10;56.40;;;;;;2051220;28;20288;-89
2022/07/15 04:26:53;;;;;;;3.90;1.58;;;20.20;56.50;;;;;;2051387;28;20324;-88
2022/07/15 04:27:54;;;;;;;3.33;1.45;;;20.10;56.50;;;;;;2058223;28;20265;-89
2022/07/15 04:29:02;;;;;;;1.95;1.23;;;20.10;56.50;;;;;;2057899;28;20026;-89
2022/07/15 04:30:05;;;;;;;2.72;1.60;;;20.10;56.50;;;;;;2066339;28;20267;-90
2022/07/15 04:31:14;;;;;;;3.03;1.30;;;20.20;56.50;;;;;;2060211;28;20065;-88
2022/07/15 04:32:30;;;;;;;3.28;1.60;;;20.10;56.50;;;;;;2062794;28;20267;-91
2022/07/15 04:33:30;;;;;;;3.73;1.57;;;20.10;56.60;;;;;;2052299;28;20748;-90
2022/07/15 04:34:33;;;;;;;4.97;1.70;;;20.10;56.50;;;;;;2050399;28;20027;-89
2022/07/15 04:35:34;;;;;;;7.63;1.77;;;20.10;56.60;;;;;;2058182;28;20260;-87
2022/07/15 04:36:40;;;;;;;5.43;1.90;;;20.10;56.60;;;;;;2066751;28;20026;-88
2022/07/15 04:37:41;;;;;;;6.35;1.52;;;20.10;56.60;;;;;;2058364;28;20663;-89
2022/07/15 04:38:42;;;;;;;4.10;1.75;;;20.10;56.70;;;;;;2059901;28;20038;-87
2022/07/15 04:39:43;;;;;;;6.25;1.63;;;20.10;56.70;;;;;;2066068;28;20105;-88
2022/07/15 04:40:44;;;;;;;3.45;1.40;;;20.00;56.70;;;;;;2053712;28;20482;-91
2022/07/15 04:41:46;;;;;;;5.10;1.73;;;20.00;56.70;;;;;;2051102;28;20052;-89
2022/07/15 04:42:47;;;;;;;3.97;1.60;;;20.00;56.80;;;;;;2051777;28;20027;-87
2022/07/15 04:43:49;;;;;;;6.10;1.60;;;20.00;56.70;;;;;;2062025;28;20097;-90
2022/07/15 04:44:52;;;;;;;2.33;1.35;;;20.10;56.80;;;;;;2075092;28;20271;-87
2022/07/15 04:45:55;;;;;;;4.22;1.48;;;20.00;56.80;;;;;;2070482;28;20092;-87
2022/07/15 04:46:56;;;;;;;3.92;1.55;;;20.00;56.80;;;;;;2059686;28;20339;-86
2022/07/15 04:50:45;;;;;;;5.38;1.40;;;20.00;56.80;;;;;;2060411;28;20035;-88
2022/07/15 04:50:51;;;;;;;2.97;1.52;;;20.00;56.80;;;;;;2070262;28;20286;-90
2022/07/15 04:51:53;;;;;;;2.92;1.45;;;20.00;56.80;;;;;;2066661;28;20260;-87
2022/07/15 04:52:54;;;;;;;5.47;1.45;;;20.00;56.80;;;;;;2051795;28;20312;-90
2022/07/15 04:53:58;;;;;;;3.60;1.38;;;19.90;56.90;;;;;;2060214;28;20065;-87
2022/07/15 04:54:59;;;;;;;2.63;1.35;;;20.00;56.90;;;;;;2054165;28;20265;-89
2022/07/15 04:56:00;;;;;;;3.55;1.63;;;20.00;56.90;;;;;;2059394;28;20043;-87
2022/07/15 04:57:02;;;;;;;3.65;1.35;;;20.00;57.00;;;;;;2075706;28;20030;-91
2022/07/15 04:58:03;;;;;;;3.67;1.20;;;19.90;56.80;;;;;;2069974;28;20033;-88
2022/07/15 04:59:04;;;;;;;5.70;1.38;;;20.00;57.00;;;;;;2068423;28;20030;-90
2022/07/15 05:00:07;;;;;;;3.20;1.17;;;20.00;57.00;;;;;;2079132;28;20026;-88
2022/07/15 05:01:12;;;;;;;3.90;1.25;;;20.00;57.00;;;;;;2069732;28;20042;-87
2022/07/15 05:02:13;;;;;;;3.83;1.20;;;19.90;57.00;;;;;;2060515;28;20348;-90
2022/07/15 05:03:18;;;;;;;3.55;1.30;;;20.00;57.10;;;;;;2055906;28;20031;-86
2022/07/15 05:04:19;;;;;;;5.63;1.42;;;19.90;57.00;;;;;;2059177;28;20312;-89
2022/07/15 05:05:21;;;;;;;2.83;1.60;;;19.90;57.10;;;;;;2059669;28;20118;-89
2022/07/15 05:06:23;;;;;;;4.28;1.65;;;19.90;57.10;;;;;;2061380;28;20385;-88
2022/07/15 05:07:25;;;;;;;4.10;1.70;;;19.90;57.20;;;;;;2059909;28;20331;-89
2022/07/15 05:08:26;;;;;;;5.03;1.90;;;19.90;57.20;;;;;;2054922;28;20023;-91
2022/07/15 05:09:29;;;;;;;3.63;1.50;;;19.90;57.20;;;;;;2052113;28;20039;-91
2022/07/15 05:10:30;;;;;;;5.55;1.83;;;19.90;57.30;;;;;;2051739;28;20273;-91
2022/07/15 05:11:36;;;;;;;2.83;1.50;;;19.90;57.30;;;;;;2055023;28;20054;-88
2022/07/15 05:12:38;;;;;;;6.60;1.63;;;19.90;57.30;;;;;;2076617;28;20263;-86
2022/07/15 05:13:39;;;;;;;4.90;1.35;;;19.90;57.30;;;;;;2064708;28;20034;-87
2022/07/15 05:14:41;;;;;;;5.40;1.80;;;19.80;57.30;;;;;;2060047;28;20031;-88
2022/07/15 05:15:42;;;;;;;3.58;2.00;;;19.80;57.30;;;;;;2075537;28;20357;-89
2022/07/15 05:16:54;;;;;;;5.15;2.03;;;19.90;57.40;;;;;;2075794;28;20076;-87
2022/07/15 05:17:55;;;;;;;3.38;1.50;;;19.80;57.40;;;;;;2067008;28;20038;-87
2022/07/15 05:18:57;;;;;;;2.95;1.70;;;19.90;57.50;;;;;;2060657;28;20121;-90
2022/07/15 05:19:58;;;;;;;4.25;1.85;;;19.80;57.40;;;;;;2061009;28;20027;-90
2022/07/15 05:20:59;;;;;;;6.90;1.53;;;19.80;57.40;;;;;;2051402;28;20058;-89
2022/07/15 05:22:03;;;;;;;4.60;1.70;;;19.80;57.40;;;;;;2057227;28;20436;-90
2022/07/15 05:23:06;;;;;;;2.72;1.67;;;19.80;57.50;;;;;;2059444;28;20281;-91
2022/07/15 05:24:11;;;;;;;2.30;1.30;;;19.80;57.40;;;;;;2052921;28;20827;-88
2022/07/15 05:25:12;;;;;;;2.80;1.80;;;19.80;57.40;;;;;;2056138;28;20264;-91
2022/07/15 05:26:15;;;;;;;5.25;2.00;;;19.90;57.50;;;;;;2067741;28;20476;-88
2022/07/15 05:27:18;;;;;;;4.65;1.73;;;19.80;57.50;;;;;;2067941;28;20347;-88
2022/07/15 05:28:22;;;;;;;4.25;1.77;;;19.80;57.60;;;;;;2068825;28;20331;-89
2022/07/15 05:29:24;;;;;;;2.58;1.40;;;19.80;57.60;;;;;;2067521;28;20347;-87
2022/07/15 05:30:27;;;;;;;4.53;1.77;;;19.80;57.60;;;;;;2067670;28;20365;-90
2022/07/15 05:31:31;;;;;;;4.32;1.85;;;19.80;57.60;;;;;;2067694;28;20264;-90
2022/07/15 05:32:34;;;;;;;3.28;1.70;;;19.80;57.60;;;;;;2053166;28;20266;-89